Modena, Utah
Current Conditions -  °F | °C
As of 11:53 PM on Saturday 22 Nov 2014 (Local Time) from KCDC Reporting Station
Light Snow Light Snow  
Wind Chill: 31°   Ceiling: 4100
Heat Index: 36°   Visibility: 10mi
Dew Point: 34°   Wind: 6mph
Humidity: 93%   Direction: 30°NNE
Pressure: 30"   Gusts: NA
Location:  37.8°N, 113.93°W
Report Text: KCDC 230653Z AUTO 03005KT 10SM -SN FEW015 BKN041 OVC055 02/01 A3000 RMK AO2 RAB17E47SNB27 SLP136 P0002 T00220011 401330000
Loading
Personal Weather Stations






























Interactive Weather Map New forecast layout! Learn more

10-Day Weather Forecast

Advertisements
Track Severe Weather on mobile